Chicago, Illinois
Traffic Map
Current Weather Conditions
Chicago, Illinois
Broken Clouds
Broken Clouds
23°
Feels Like: 23°
Wind Chill: 23° Ceiling: 30000
Heat Index: 23° Visibility: 7mi
Dew Point: 21° Wind: 3mph
Humidity: 87% Direction: 350° (N)
Pressure: 29.92in Gusts: 0mph
Raw Report DataKMDW 291153Z 35003KT 7SM FEW050 BKN300 23/21 A2992 RMK AO2 SLP121 70015 T02280206 10228 20211 53004
Traffic Incident Summary
Active as of:
Severity:
Category:
InformationThere was an issue retrieving the traffic information for this location. Please try a different location or try again shortly.
Advertisements
Track Severe Weather on mobile